Time;durP1;ratioP1;P1;durP2;ratioP2;P2;SDS_P1;SDS_P2;PMS_P1;PMS_P2;Temp;Humidity;BMP_temperature;BMP_pressure;BME280_temperature;BME280_humidity;BME280_pressure;Samples;Min_cycle;Max_cycle;Signal;HPM_P1;HPM_P2
2024/03/30 00:01:13;;;;;;;2.47;2.27;;;20.20;53.10;;;;;;4892756;29;20451;-80
2024/03/30 00:03:47;;;;;;;2.80;2.60;;;20.10;53.10;;;;;;4898568;29;20447;-80
2024/03/30 00:06:28;;;;;;;2.70;2.07;;;20.10;53.00;;;;;;4903435;29;20633;-80
2024/03/30 00:08:56;;;;;;;2.17;2.07;;;20.10;53.20;;;;;;4898793;29;20466;-81
2024/03/30 00:11:23;;;;;;;2.10;2.00;;;20.10;53.20;;;;;;4896873;29;20447;-81
2024/03/30 00:13:53;;;;;;;2.30;2.20;;;20.10;53.20;;;;;;4905202;29;20443;-80
2024/03/30 00:16:39;;;;;;;2.30;2.20;;;20.10;53.20;;;;;;4916580;29;20466;-80
2024/03/30 00:19:24;;;;;;;2.40;2.30;;;20.10;53.30;;;;;;4916999;29;20481;-81
2024/03/30 00:25:11;;;;;;;2.63;2.53;;;20.10;53.40;;;;;;4882397;29;20466;-80
2024/03/30 00:27:37;;;;;;;2.20;2.10;;;20.10;53.50;;;;;;4918431;29;20446;-81
2024/03/30 00:30:05;;;;;;;2.23;1.83;;;20.10;53.40;;;;;;4900331;29;20468;-80
2024/03/30 00:32:31;;;;;;;2.90;2.20;;;20.10;53.50;;;;;;4916295;29;20441;-79
2024/03/30 00:35:00;;;;;;;2.00;1.90;;;20.10;53.50;;;;;;4904060;29;20501;-80
2024/03/30 00:37:28;;;;;;;1.97;1.87;;;20.10;53.60;;;;;;4919914;29;20442;-80
2024/03/30 00:39:55;;;;;;;1.90;1.80;;;20.10;53.50;;;;;;4907898;29;20474;-80
2024/03/30 00:42:21;;;;;;;2.30;2.00;;;20.10;53.40;;;;;;4929282;29;20442;-80
2024/03/30 00:44:48;;;;;;;2.43;2.17;;;20.00;53.60;;;;;;4920243;29;20462;-80
2024/03/30 00:47:18;;;;;;;2.10;2.00;;;20.10;53.50;;;;;;4917424;29;20449;-82
2024/03/30 00:49:48;;;;;;;2.50;2.10;;;20.00;53.40;;;;;;4910077;29;20453;-81
2024/03/30 00:52:14;;;;;;;2.20;2.10;;;20.00;53.40;;;;;;4907646;29;20464;-81
2024/03/30 00:54:45;;;;;;;3.07;2.00;;;20.00;53.30;;;;;;4915774;29;21058;-80
2024/03/30 00:57:11;;;;;;;2.13;1.90;;;20.00;53.30;;;;;;4913963;29;20443;-80
2024/03/30 00:59:40;;;;;;;2.20;2.10;;;20.10;53.30;;;;;;4925085;29;20472;-81
2024/03/30 01:02:06;;;;;;;1.90;1.80;;;20.00;53.30;;;;;;4920942;29;20441;-80
2024/03/30 01:04:34;;;;;;;2.50;2.30;;;20.00;53.30;;;;;;4903093;29;20454;-77
2024/03/30 01:07:02;;;;;;;4.23;2.10;;;20.00;53.20;;;;;;4898630;29;20434;-77
2024/03/30 01:09:30;;;;;;;2.60;2.40;;;20.00;53.30;;;;;;4904969;29;20451;-78
2024/03/30 01:11:58;;;;;;;2.07;1.97;;;20.00;53.20;;;;;;4902957;29;20442;-78
2024/03/30 01:14:27;;;;;;;2.10;2.00;;;20.00;53.30;;;;;;4886426;29;20454;-77
2024/03/30 01:16:53;;;;;;;2.10;1.87;;;20.00;53.40;;;;;;4887237;29;20945;-77
2024/03/30 01:19:21;;;;;;;3.60;2.07;;;20.00;53.50;;;;;;4897430;29;20478;-77
2024/03/30 01:21:48;;;;;;;2.50;2.30;;;20.00;53.40;;;;;;4913159;29;20445;-77
2024/03/30 01:24:15;;;;;;;2.10;2.00;;;20.00;53.40;;;;;;4911684;29;20446;-81
2024/03/30 01:26:44;;;;;;;2.17;2.07;;;20.00;53.50;;;;;;4937259;29;20450;-81
2024/03/30 01:29:12;;;;;;;2.17;2.07;;;20.00;53.50;;;;;;4921376;29;20470;-82
2024/03/30 01:31:39;;;;;;;1.90;1.80;;;20.00;53.60;;;;;;4922550;29;20442;-79
2024/03/30 01:34:07;;;;;;;2.20;2.00;;;19.90;53.50;;;;;;4912731;29;20446;-77
2024/03/30 01:36:33;;;;;;;1.93;1.83;;;20.00;53.60;;;;;;4936095;29;20461;-78
2024/03/30 01:39:00;;;;;;;1.90;1.80;;;19.90;53.60;;;;;;4919253;29;20450;-78
2024/03/30 01:41:26;;;;;;;1.90;1.70;;;19.90;53.60;;;;;;4890410;29;20443;-79
2024/03/30 01:43:53;;;;;;;2.37;2.03;;;19.90;53.60;;;;;;4896963;29;20939;-77
2024/03/30 01:46:20;;;;;;;2.30;2.20;;;19.90;53.70;;;;;;4897103;29;20462;-77
2024/03/30 01:48:48;;;;;;;2.10;1.90;;;19.90;53.70;;;;;;4881210;29;20446;-78
2024/03/30 01:51:14;;;;;;;3.57;1.90;;;19.90;53.70;;;;;;4891667;29;20467;-78
2024/03/30 01:53:41;;;;;;;5.17;2.20;;;19.90;53.80;;;;;;4880414;29;20450;-79
2024/03/30 01:56:07;;;;;;;1.97;1.87;;;19.90;53.70;;;;;;4880291;29;20470;-78
2024/03/30 01:58:34;;;;;;;1.87;1.77;;;19.90;53.70;;;;;;4879905;29;20535;-78
2024/03/30 02:01:00;;;;;;;2.70;1.90;;;19.90;53.80;;;;;;4894920;29;20477;-77
2024/03/30 02:03:29;;;;;;;1.80;1.70;;;19.90;53.90;;;;;;4920015;29;20438;-77
2024/03/30 02:05:55;;;;;;;1.60;1.50;;;19.90;53.90;;;;;;4913128;29;20470;-78
2024/03/30 02:08:23;;;;;;;1.70;1.60;;;19.90;54.00;;;;;;4897134;29;20442;-77
2024/03/30 02:10:49;;;;;;;1.70;1.60;;;19.90;54.00;;;;;;4913244;29;20438;-77
2024/03/30 02:13:16;;;;;;;2.60;1.83;;;19.90;54.00;;;;;;4897097;29;20442;-78
2024/03/30 02:15:42;;;;;;;1.80;1.70;;;19.90;54.00;;;;;;4896771;29;20461;-78
2024/03/30 02:18:10;;;;;;;2.20;2.00;;;19.90;53.80;;;;;;4912817;29;20501;-77
2024/03/30 02:20:37;;;;;;;1.80;1.70;;;19.90;54.00;;;;;;4897287;29;20485;-76
2024/03/30 02:23:04;;;;;;;1.80;1.70;;;19.90;54.10;;;;;;4913272;29;20450;-77
2024/03/30 02:25:32;;;;;;;1.97;1.70;;;19.90;54.10;;;;;;4890422;29;20461;-77
2024/03/30 02:27:59;;;;;;;2.10;1.90;;;19.90;54.10;;;;;;4903594;29;20935;-77
2024/03/30 02:30:27;;;;;;;1.93;1.83;;;19.90;54.20;;;;;;4886824;29;20946;-78
2024/03/30 02:32:54;;;;;;;2.10;1.90;;;19.90;54.10;;;;;;4891769;29;20441;-77
2024/03/30 02:35:20;;;;;;;1.87;1.77;;;19.80;54.30;;;;;;4904872;29;20474;-78
2024/03/30 02:37:48;;;;;;;2.17;2.03;;;19.90;54.30;;;;;;4903489;29;20450;-78
2024/03/30 02:40:14;;;;;;;2.13;1.93;;;19.80;54.30;;;;;;4890641;29;20484;-77
2024/03/30 02:42:42;;;;;;;1.90;1.80;;;19.80;54.30;;;;;;4902337;29;20437;-77
2024/03/30 02:45:10;;;;;;;1.90;1.80;;;19.90;54.40;;;;;;4910462;29;20457;-77
2024/03/30 02:47:36;;;;;;;1.80;1.70;;;19.90;54.50;;;;;;4903983;29;20437;-79
2024/03/30 02:50:03;;;;;;;1.60;1.50;;;19.90;54.60;;;;;;4919772;29;20438;-77
2024/03/30 02:52:30;;;;;;;1.97;1.87;;;19.90;54.60;;;;;;4903635;29;20438;-78
2024/03/30 02:54:56;;;;;;;1.93;1.83;;;19.90;54.70;;;;;;4915460;29;20462;-78
2024/03/30 02:57:23;;;;;;;1.57;1.47;;;19.90;54.70;;;;;;4899896;29;20438;-79
2024/03/30 02:59:51;;;;;;;1.90;1.80;;;19.90;54.70;;;;;;4915665;29;20482;-79
2024/03/30 03:02:18;;;;;;;1.87;1.73;;;19.90;54.80;;;;;;4915796;29;20456;-76
2024/03/30 03:04:44;;;;;;;1.80;1.70;;;19.80;54.90;;;;;;4895318;29;20465;-77
2024/03/30 03:07:12;;;;;;;2.17;1.70;;;19.80;54.90;;;;;;4915507;29;20438;-77
2024/03/30 03:09:38;;;;;;;2.90;1.80;;;19.80;54.80;;;;;;4899529;29;20446;-79
2024/03/30 03:12:06;;;;;;;7.70;1.50;;;19.90;55.00;;;;;;4915404;29;20446;-78
2024/03/30 03:14:32;;;;;;;2.00;1.90;;;19.80;54.90;;;;;;4898828;29;20450;-77
2024/03/30 03:17:00;;;;;;;2.13;2.03;;;19.80;55.00;;;;;;4915442;29;20446;-77
2024/03/30 03:19:26;;;;;;;1.30;1.30;;;19.80;55.00;;;;;;4899444;29;20441;-79
2024/03/30 03:21:54;;;;;;;1.80;1.70;;;19.80;55.00;;;;;;4915198;29;20461;-80
2024/03/30 03:24:20;;;;;;;2.60;2.13;;;19.80;55.10;;;;;;4901235;29;20464;-77
2024/03/30 03:26:47;;;;;;;1.90;1.80;;;19.80;55.10;;;;;;4909449;29;20464;-78
2024/03/30 03:29:13;;;;;;;2.10;1.87;;;19.80;55.40;;;;;;4918213;29;20460;-78
2024/03/30 03:31:40;;;;;;;1.40;1.40;;;19.80;55.30;;;;;;4918290;29;20432;-79
2024/03/30 03:34:08;;;;;;;1.70;1.60;;;19.80;55.40;;;;;;4933850;29;20964;-79
2024/03/30 03:36:35;;;;;;;1.60;1.50;;;19.80;55.40;;;;;;4918312;29;20527;-79
2024/03/30 03:39:01;;;;;;;1.93;1.83;;;19.80;55.40;;;;;;4933873;29;20455;-76
2024/03/30 03:41:28;;;;;;;1.80;1.70;;;19.80;55.40;;;;;;4917862;29;20485;-79
2024/03/30 03:43:54;;;;;;;2.13;1.90;;;19.80;55.30;;;;;;4934039;29;20691;-80
2024/03/30 03:46:21;;;;;;;1.70;1.60;;;19.80;55.60;;;;;;4918154;29;20471;-79
2024/03/30 03:48:47;;;;;;;1.77;1.67;;;19.80;55.50;;;;;;4934073;29;20449;-77
2024/03/30 03:51:16;;;;;;;1.90;1.80;;;19.80;55.60;;;;;;4917639;29;20967;-77
2024/03/30 03:53:42;;;;;;;2.00;1.90;;;19.80;55.60;;;;;;4933220;29;20448;-77
2024/03/30 03:56:09;;;;;;;1.87;1.77;;;19.80;55.50;;;;;;4917840;29;20461;-78
2024/03/30 03:58:35;;;;;;;1.60;1.50;;;19.80;55.70;;;;;;4917540;29;20452;-77
2024/03/30 04:01:06;;;;;;;2.00;1.57;;;19.80;55.60;;;;;;4919053;29;20482;-77
2024/03/30 04:03:32;;;;;;;2.40;1.60;;;19.80;55.70;;;;;;4904907;29;20445;-78
2024/03/30 04:06:08;;;;;;;2.30;2.07;;;19.80;55.80;;;;;;4923363;29;20468;-78
2024/03/30 04:08:35;;;;;;;1.70;1.60;;;19.70;55.60;;;;;;4910825;29;20449;-78
2024/03/30 04:11:03;;;;;;;1.80;1.70;;;19.70;55.80;;;;;;4905021;29;20810;-78
2024/03/30 04:13:29;;;;;;;1.70;1.60;;;19.70;55.70;;;;;;4913497;29;20486;-78
2024/03/30 04:15:57;;;;;;;1.90;1.80;;;19.80;56.00;;;;;;4903678;29;20482;-78
2024/03/30 04:18:23;;;;;;;1.97;1.30;;;19.70;56.50;;;;;;4913352;29;20469;-78
2024/03/30 04:20:57;;;;;;;1.97;1.87;;;19.70;55.90;;;;;;4898422;29;20476;-78
2024/03/30 04:23:23;;;;;;;1.57;1.47;;;19.70;56.00;;;;;;4898490;29;20214;-77
2024/03/30 04:26:02;;;;;;;1.80;1.70;;;19.70;56.10;;;;;;4904215;29;20469;-77
2024/03/30 04:28:28;;;;;;;1.63;1.53;;;19.70;56.00;;;;;;4906431;29;20442;-78
2024/03/30 04:30:56;;;;;;;2.40;1.97;;;19.70;56.20;;;;;;4897702;29;20466;-79
2024/03/30 04:33:22;;;;;;;1.50;1.40;;;19.70;56.10;;;;;;4912307;29;20207;-79
2024/03/30 04:35:55;;;;;;;1.70;1.60;;;19.70;56.20;;;;;;4902846;29;20520;-78
2024/03/30 04:38:22;;;;;;;1.57;1.47;;;19.70;56.10;;;;;;4905703;29;20442;-79
2024/03/30 04:40:57;;;;;;;2.30;1.40;;;19.70;56.30;;;;;;4922341;29;20478;-79
2024/03/30 04:43:26;;;;;;;1.50;1.40;;;19.70;56.30;;;;;;4925445;29;20445;-84
2024/03/30 04:45:52;;;;;;;1.67;1.57;;;19.70;56.30;;;;;;4935162;29;20464;-84
2024/03/30 04:48:19;;;;;;;1.40;1.30;;;19.70;56.20;;;;;;4930109;29;20438;-79
2024/03/30 04:50:45;;;;;;;1.80;1.70;;;19.70;56.30;;;;;;4934052;29;20459;-79
2024/03/30 04:53:16;;;;;;;1.17;1.17;;;19.70;56.30;;;;;;4912565;29;20457;-78
2024/03/30 04:55:49;;;;;;;1.67;1.57;;;19.70;56.60;;;;;;4914763;29;20246;-79
2024/03/30 04:58:17;;;;;;;1.50;1.40;;;19.70;56.50;;;;;;4917366;29;20454;-77
2024/03/30 05:00:45;;;;;;;1.80;1.70;;;19.70;56.60;;;;;;4917648;29;21004;-78
2024/03/30 05:03:12;;;;;;;1.50;1.40;;;19.70;56.50;;;;;;4908716;29;20450;-76
2024/03/30 05:05:38;;;;;;;1.70;1.60;;;19.70;56.50;;;;;;4899747;29;20474;-78
2024/03/30 05:08:06;;;;;;;2.00;1.37;;;19.60;56.50;;;;;;4900716;29;20446;-78
2024/03/30 05:10:32;;;;;;;1.80;1.70;;;19.60;56.80;;;;;;4904443;29;20449;-78
2024/03/30 05:12:59;;;;;;;1.80;1.70;;;19.60;56.70;;;;;;4918814;29;20833;-77
2024/03/30 05:15:25;;;;;;;1.47;1.47;;;19.60;56.80;;;;;;4897911;29;20494;-78
2024/03/30 05:17:54;;;;;;;1.90;1.80;;;19.60;56.80;;;;;;4913421;29;20457;-78
2024/03/30 05:23:06;;;;;;;1.40;1.30;;;19.60;56.80;;;;;;4897013;29;20446;-78
2024/03/30 05:25:32;;;;;;;1.60;1.50;;;19.60;56.90;;;;;;4893218;29;20452;-78
2024/03/30 05:27:58;;;;;;;2.90;1.80;;;19.50;56.80;;;;;;4901670;29;20959;-78
2024/03/30 05:30:26;;;;;;;1.40;1.40;;;19.60;57.10;;;;;;4895692;29;20442;-78
2024/03/30 05:32:53;;;;;;;1.80;1.70;;;19.60;57.10;;;;;;4896383;29;20795;-79
2024/03/30 05:35:20;;;;;;;1.83;1.70;;;19.60;57.00;;;;;;4921222;29;20469;-78
2024/03/30 05:37:47;;;;;;;1.60;1.50;;;19.60;57.20;;;;;;4901786;29;20453;-78
2024/03/30 05:40:14;;;;;;;2.43;1.83;;;19.60;57.10;;;;;;4900557;29;20453;-78
2024/03/30 05:42:40;;;;;;;2.00;1.77;;;19.60;57.00;;;;;;4906068;29;20461;-78
2024/03/30 05:45:07;;;;;;;1.70;1.60;;;19.50;57.10;;;;;;4900150;29;20520;-79
2024/03/30 05:47:34;;;;;;;1.80;1.70;;;19.60;57.10;;;;;;4920849;29;20453;-78
2024/03/30 05:50:02;;;;;;;1.93;1.83;;;19.60;57.00;;;;;;4906809;29;20447;-77
2024/03/30 05:52:28;;;;;;;2.40;1.50;;;19.60;57.20;;;;;;4904049;29;20444;-78
2024/03/30 05:54:56;;;;;;;1.80;1.70;;;19.60;57.20;;;;;;4912157;29;20474;-77
2024/03/30 05:57:23;;;;;;;2.13;2.03;;;19.60;57.30;;;;;;4912949;29;20453;-78
2024/03/30 05:59:49;;;;;;;1.63;1.53;;;19.60;57.20;;;;;;4896342;29;20457;-78
2024/03/30 06:02:16;;;;;;;4.80;1.70;;;19.60;57.10;;;;;;4903174;29;20762;-77
2024/03/30 06:04:42;;;;;;;1.60;1.50;;;19.60;57.20;;;;;;4912016;29;20465;-78
2024/03/30 06:07:11;;;;;;;1.90;1.80;;;19.60;57.20;;;;;;4913181;29;20457;-77
2024/03/30 06:09:37;;;;;;;1.47;1.47;;;19.60;57.10;;;;;;4904699;29;20450;-77
2024/03/30 06:12:04;;;;;;;1.70;1.60;;;19.70;57.30;;;;;;4926436;29;20445;-78
2024/03/30 06:14:30;;;;;;;1.50;1.50;;;19.70;57.30;;;;;;4920422;29;20446;-78
2024/03/30 06:16:58;;;;;;;1.80;1.70;;;19.70;57.30;;;;;;4896074;29;20461;-79
2024/03/30 06:19:23;;;;;;;1.63;1.53;;;19.70;57.40;;;;;;4896942;29;20438;-77
2024/03/30 06:21:51;;;;;;;1.83;1.73;;;19.80;57.30;;;;;;4913294;29;20473;-77
2024/03/30 06:24:19;;;;;;;1.70;1.60;;;19.80;57.10;;;;;;4914645;29;20450;-79
2024/03/30 06:26:46;;;;;;;1.90;1.50;;;19.90;57.20;;;;;;4902022;29;20473;-79
2024/03/30 06:29:12;;;;;;;1.60;1.50;;;19.90;57.20;;;;;;4902615;29;20442;-78
2024/03/30 06:31:39;;;;;;;1.70;1.60;;;20.00;57.20;;;;;;4905807;29;20446;-78
2024/03/30 06:34:05;;;;;;;1.93;1.83;;;20.00;57.00;;;;;;4897058;29;20445;-80
2024/03/30 06:36:32;;;;;;;1.60;1.57;;;20.10;57.10;;;;;;4910280;29;20481;-79
2024/03/30 06:38:59;;;;;;;1.60;1.50;;;20.10;57.20;;;;;;4897956;29;20454;-78
2024/03/30 06:44:12;;;;;;;1.50;1.40;;;20.20;57.10;;;;;;4913695;29;20442;-77
2024/03/30 06:46:39;;;;;;;1.53;1.43;;;20.20;57.00;;;;;;4897684;29;20477;-78
2024/03/30 06:49:06;;;;;;;1.50;1.40;;;20.30;56.80;;;;;;4880681;29;20962;-78
2024/03/30 06:51:34;;;;;;;1.70;1.60;;;20.30;57.00;;;;;;4896054;29;20450;-78
2024/03/30 06:54:01;;;;;;;1.23;1.23;;;20.30;56.90;;;;;;4896240;29;20446;-78
2024/03/30 06:56:29;;;;;;;1.70;1.60;;;20.40;56.80;;;;;;4884373;29;20471;-77
2024/03/30 06:58:56;;;;;;;1.70;1.60;;;20.40;56.80;;;;;;4919162;29;20441;-77
2024/03/30 07:01:23;;;;;;;1.53;1.43;;;20.40;56.70;;;;;;4933371;29;20477;-78
2024/03/30 07:03:50;;;;;;;1.60;1.50;;;20.50;56.80;;;;;;4896123;29;20453;-78
2024/03/30 07:06:17;;;;;;;1.70;1.60;;;20.50;56.90;;;;;;4916217;29;20464;-78
2024/03/30 07:08:44;;;;;;;1.60;1.50;;;20.50;56.70;;;;;;4932021;29;20440;-78
2024/03/30 07:11:10;;;;;;;1.40;1.40;;;20.50;56.80;;;;;;4916007;29;20416;-79
2024/03/30 07:13:39;;;;;;;1.53;1.43;;;20.60;56.80;;;;;;4935573;29;20449;-78
2024/03/30 07:16:05;;;;;;;1.50;1.50;;;20.60;56.80;;;;;;4916009;29;20469;-77
2024/03/30 07:18:33;;;;;;;1.43;1.43;;;20.60;56.80;;;;;;4932523;29;20456;-77
2024/03/30 07:20:59;;;;;;;1.80;1.70;;;20.60;56.80;;;;;;4915197;29;20528;-78
2024/03/30 07:23:26;;;;;;;1.67;1.40;;;20.60;56.80;;;;;;4930545;29;20867;-77
2024/03/30 07:25:52;;;;;;;1.43;1.40;;;20.70;56.80;;;;;;4914933;29;20469;-78
2024/03/30 07:28:19;;;;;;;1.60;1.50;;;20.70;56.80;;;;;;4917391;29;20441;-78
2024/03/30 07:30:53;;;;;;;1.80;1.70;;;20.80;56.80;;;;;;4918787;29;20449;-78
2024/03/30 07:33:20;;;;;;;1.67;1.57;;;20.80;56.60;;;;;;4917301;29;20437;-78
2024/03/30 07:35:53;;;;;;;1.40;1.40;;;20.80;56.70;;;;;;4902256;29;20461;-78
2024/03/30 07:38:23;;;;;;;1.47;1.47;;;20.90;56.70;;;;;;4900618;29;20497;-78
2024/03/30 07:40:50;;;;;;;1.50;1.40;;;21.00;56.80;;;;;;4915910;29;20473;-79
2024/03/30 07:43:17;;;;;;;1.70;1.60;;;21.00;56.70;;;;;;4900165;29;20484;-79
2024/03/30 07:45:44;;;;;;;1.53;1.43;;;21.10;56.60;;;;;;4900087;29;20488;-77
2024/03/30 07:48:12;;;;;;;2.00;1.70;;;21.20;56.60;;;;;;4899902;29;20442;-77
2024/03/30 07:50:39;;;;;;;1.70;1.60;;;21.20;56.70;;;;;;4899808;29;20429;-78
2024/03/30 07:53:05;;;;;;;1.30;1.30;;;21.20;56.70;;;;;;4901168;29;20446;-77
2024/03/30 07:55:32;;;;;;;1.50;1.50;;;21.30;56.70;;;;;;4899848;29;20470;-79
2024/03/30 07:57:58;;;;;;;1.47;1.43;;;21.30;56.70;;;;;;4899992;29;20439;-78
2024/03/30 08:00:25;;;;;;;1.67;1.57;;;21.40;56.90;;;;;;4897500;29;20443;-77
2024/03/30 08:02:59;;;;;;;1.37;1.33;;;21.40;56.60;;;;;;4915171;29;20450;-81
2024/03/30 08:05:27;;;;;;;1.40;1.40;;;21.40;56.60;;;;;;4925941;29;20451;-80
2024/03/30 08:07:53;;;;;;;1.50;1.40;;;21.50;56.80;;;;;;4925429;29;20434;-78
2024/03/30 08:10:21;;;;;;;1.20;1.20;;;21.50;56.90;;;;;;4896457;29;20437;-78
2024/03/30 08:12:48;;;;;;;1.50;1.40;;;21.50;56.90;;;;;;4895101;29;20446;-76
2024/03/30 08:15:15;;;;;;;1.90;1.57;;;21.60;56.90;;;;;;4901678;29;20432;-77
2024/03/30 08:17:41;;;;;;;1.60;1.50;;;21.60;57.00;;;;;;4897447;29;20430;-77
2024/03/30 08:20:09;;;;;;;1.70;1.60;;;21.70;57.00;;;;;;4896684;29;20438;-78
2024/03/30 08:22:37;;;;;;;1.20;1.20;;;21.80;57.20;;;;;;4880765;29;20453;-78
2024/03/30 08:25:05;;;;;;;1.43;1.30;;;21.80;57.10;;;;;;4896075;29;20459;-77
2024/03/30 08:27:32;;;;;;;1.60;1.27;;;21.90;57.10;;;;;;4886610;29;20426;-77
2024/03/30 08:29:59;;;;;;;1.47;1.40;;;22.00;57.10;;;;;;4894671;29;20475;-77
2024/03/30 08:32:26;;;;;;;1.40;1.40;;;22.00;57.20;;;;;;4881557;29;20414;-77
2024/03/30 08:34:53;;;;;;;1.37;1.30;;;22.10;57.30;;;;;;4898025;29;20895;-77
2024/03/30 08:37:19;;;;;;;1.43;1.20;;;22.20;57.30;;;;;;4899072;29;20419;-76
2024/03/30 08:39:47;;;;;;;1.60;1.50;;;22.30;57.30;;;;;;4932370;29;20437;-77
2024/03/30 08:42:13;;;;;;;1.60;1.50;;;22.40;57.30;;;;;;4933048;29;20462;-76
2024/03/30 08:44:40;;;;;;;1.17;1.17;;;22.50;57.30;;;;;;4917229;29;20477;-76
2024/03/30 08:47:06;;;;;;;1.20;1.20;;;22.50;57.00;;;;;;4916906;29;20453;-77
2024/03/30 08:49:35;;;;;;;1.60;1.50;;;22.50;57.10;;;;;;4917347;29;20441;-76
2024/03/30 08:52:01;;;;;;;1.40;1.40;;;22.60;57.20;;;;;;4917686;29;20748;-76
2024/03/30 08:54:28;;;;;;;1.30;1.30;;;22.60;57.10;;;;;;4917203;29;20459;-76
2024/03/30 08:56:56;;;;;;;1.67;1.57;;;22.60;57.00;;;;;;4933204;29;20423;-76
2024/03/30 08:59:24;;;;;;;1.70;1.60;;;22.70;57.10;;;;;;4932662;29;20411;-76
2024/03/30 09:01:50;;;;;;;1.53;1.43;;;22.70;57.10;;;;;;4917325;29;20968;-76
2024/03/30 09:07:09;;;;;;;1.80;1.70;;;22.90;57.40;;;;;;4897666;29;20509;-78
2024/03/30 09:09:35;;;;;;;1.57;1.47;;;23.20;57.40;;;;;;4899503;29;20428;-77
2024/03/30 09:12:05;;;;;;;1.73;1.63;;;23.40;57.40;;;;;;4900943;29;20425;-77
2024/03/30 09:14:31;;;;;;;1.70;1.60;;;23.60;57.30;;;;;;4901596;29;20423;-77
2024/03/30 09:16:59;;;;;;;1.37;1.37;;;23.80;57.40;;;;;;4916491;29;20421;-78
2024/03/30 09:19:25;;;;;;;1.40;1.40;;;24.00;57.40;;;;;;4899371;29;20418;-77
2024/03/30 09:21:52;;;;;;;1.30;1.20;;;24.10;57.20;;;;;;4915148;29;20452;-77
2024/03/30 09:24:18;;;;;;;1.60;1.50;;;24.40;57.20;;;;;;4912267;29;20412;-77
2024/03/30 09:26:46;;;;;;;1.20;1.20;;;24.60;57.20;;;;;;4895890;29;20441;-77
2024/03/30 09:29:15;;;;;;;2.17;1.33;;;24.80;57.10;;;;;;4913090;29;20454;-76
2024/03/30 09:31:43;;;;;;;1.17;1.07;;;25.00;56.80;;;;;;4881780;29;20422;-77
2024/03/30 09:34:12;;;;;;;1.10;1.10;;;25.20;56.60;;;;;;4881913;29;20446;-78
2024/03/30 09:36:40;;;;;;;1.00;1.00;;;25.40;56.40;;;;;;4900753;29;20445;-77
2024/03/30 09:39:06;;;;;;;1.20;1.20;;;25.60;56.20;;;;;;4882936;29;20439;-78
2024/03/30 09:41:48;;;;;;;1.67;1.40;;;25.70;55.90;;;;;;4892869;29;20470;-78
2024/03/30 09:44:16;;;;;;;1.50;1.40;;;25.90;55.80;;;;;;4914338;29;20413;-78
2024/03/30 09:46:44;;;;;;;3.27;1.37;;;26.00;55.70;;;;;;4898077;29;20444;-78
2024/03/30 09:49:10;;;;;;;1.30;1.30;;;26.10;55.40;;;;;;4882855;29;20422;-78
2024/03/30 09:51:37;;;;;;;1.63;1.20;;;26.10;55.10;;;;;;4916358;29;20481;-76
2024/03/30 09:54:05;;;;;;;1.50;1.40;;;26.10;55.00;;;;;;4914072;29;20438;-77
2024/03/30 09:56:32;;;;;;;1.47;1.13;;;26.00;54.90;;;;;;4913568;29;20948;-77
2024/03/30 09:58:58;;;;;;;1.10;1.10;;;26.00;54.80;;;;;;4897211;29;20421;-76
2024/03/30 10:01:29;;;;;;;1.33;1.23;;;25.90;54.70;;;;;;4897123;29;20452;-77
2024/03/30 10:03:59;;;;;;;1.30;1.20;;;25.90;54.90;;;;;;4900549;29;20424;-79
2024/03/30 10:06:44;;;;;;;2.03;1.50;;;25.80;54.90;;;;;;4900761;29;20493;-79
2024/03/30 10:09:14;;;;;;;1.40;1.30;;;25.70;54.80;;;;;;4907087;29;20428;-79
2024/03/30 10:11:51;;;;;;;1.90;1.20;;;25.60;54.80;;;;;;4904846;29;20449;-80
2024/03/30 10:14:25;;;;;;;1.33;1.33;;;25.50;54.80;;;;;;4914662;29;20460;-80
2024/03/30 10:16:54;;;;;;;1.33;1.23;;;25.50;54.90;;;;;;4895587;29;20417;-80
2024/03/30 10:19:20;;;;;;;1.10;1.10;;;25.70;55.00;;;;;;4905449;29;20453;-80
2024/03/30 10:21:48;;;;;;;1.40;1.30;;;25.70;54.70;;;;;;4907533;29;20490;-78
2024/03/30 10:24:23;;;;;;;3.23;1.23;;;25.80;54.60;;;;;;4882490;29;20485;-78
2024/03/30 10:26:50;;;;;;;1.20;1.10;;;25.90;54.40;;;;;;4899029;29;20442;-79
2024/03/30 10:29:17;;;;;;;2.50;1.33;;;26.00;54.40;;;;;;4891135;29;20432;-78
2024/03/30 10:31:44;;;;;;;1.20;1.10;;;26.10;54.20;;;;;;4891811;29;20442;-80
2024/03/30 10:34:12;;;;;;;1.53;1.43;;;26.20;54.00;;;;;;4925819;29;20444;-80
2024/03/30 10:36:39;;;;;;;1.20;1.10;;;26.30;53.80;;;;;;4905723;29;20441;-80
2024/03/30 10:39:05;;;;;;;2.27;1.10;;;26.30;53.80;;;;;;4892644;29;20424;-79
2024/03/30 10:41:33;;;;;;;1.10;1.00;;;26.30;53.60;;;;;;4895641;29;20451;-79
2024/03/30 10:43:59;;;;;;;1.53;1.30;;;26.40;53.60;;;;;;4895461;29;20417;-80
2024/03/30 10:46:29;;;;;;;1.40;1.30;;;26.50;53.60;;;;;;4893124;29;20437;-81
2024/03/30 10:49:02;;;;;;;1.60;1.20;;;26.60;53.50;;;;;;4885024;29;20807;-77
2024/03/30 10:51:31;;;;;;;1.90;1.17;;;26.60;53.30;;;;;;4895567;29;20455;-79
2024/03/30 10:54:04;;;;;;;1.40;1.30;;;26.70;53.40;;;;;;4900518;29;20440;-78
2024/03/30 10:56:31;;;;;;;1.67;1.10;;;26.70;53.20;;;;;;4903764;29;20441;-77
2024/03/30 10:59:00;;;;;;;1.17;1.00;;;27.00;53.20;;;;;;4892323;29;20423;-79
2024/03/30 11:01:29;;;;;;;6.17;1.70;;;27.50;53.10;;;;;;4906315;29;20454;-81
2024/03/30 11:03:59;;;;;;;7.90;1.90;;;27.20;49.10;;;;;;4884477;29;20417;-77
2024/03/30 11:06:26;;;;;;;7.23;2.43;;;25.60;46.00;;;;;;4891678;29;20460;-80
2024/03/30 11:08:53;;;;;;;9.83;2.00;;;24.60;48.20;;;;;;4902639;29;20420;-80
2024/03/30 11:11:21;;;;;;;16.60;2.60;;;23.80;49.50;;;;;;4903640;29;20852;-80
2024/03/30 11:13:47;;;;;;;13.37;3.03;;;22.60;49.70;;;;;;4901433;29;20424;-80
2024/03/30 11:16:15;;;;;;;12.23;2.33;;;22.20;51.90;;;;;;4899220;29;20465;-79
2024/03/30 11:18:48;;;;;;;17.67;2.97;;;22.40;52.10;;;;;;4892698;29;20448;-79
2024/03/30 11:21:19;;;;;;;12.70;2.60;;;22.40;51.00;;;;;;4893049;29;20442;-80
2024/03/30 11:23:49;;;;;;;13.70;4.07;;;22.40;52.00;;;;;;4926733;29;20434;-81
2024/03/30 11:26:19;;;;;;;22.20;4.83;;;23.10;51.00;;;;;;4930327;29;20454;-82
2024/03/30 11:28:48;;;;;;;24.67;3.00;;;22.90;51.00;;;;;;4911735;29;20430;-82
2024/03/30 11:31:20;;;;;;;13.97;2.57;;;23.20;51.40;;;;;;4906029;29;20438;-78
2024/03/30 11:33:54;;;;;;;22.80;3.40;;;23.50;51.10;;;;;;4905707;29;20441;-78
2024/03/30 11:36:23;;;;;;;20.53;2.50;;;23.60;51.00;;;;;;4904750;29;20441;-80
2024/03/30 11:38:58;;;;;;;14.70;2.23;;;24.60;50.50;;;;;;4904979;29;20445;-79
2024/03/30 11:41:36;;;;;;;11.70;2.80;;;25.50;49.10;;;;;;4902179;29;21000;-79
2024/03/30 11:44:06;;;;;;;10.73;2.30;;;26.30;48.40;;;;;;4911339;29;20464;-81
2024/03/30 11:46:50;;;;;;;7.83;2.63;;;27.50;47.40;;;;;;4938705;29;20480;-80
2024/03/30 11:49:18;;;;;;;12.73;2.20;;;28.60;45.40;;;;;;4891869;29;20439;-83
2024/03/30 11:51:45;;;;;;;11.67;2.07;;;29.40;43.70;;;;;;4894975;29;20480;-81
2024/03/30 11:54:19;;;;;;;10.60;2.47;;;29.40;43.10;;;;;;4917701;29;20456;-82
2024/03/30 11:56:56;;;;;;;12.37;2.67;;;29.30;42.80;;;;;;4927002;29;20472;-81
2024/03/30 11:59:22;;;;;;;7.30;1.90;;;29.40;43.20;;;;;;4915815;29;20489;-79
2024/03/30 12:01:49;;;;;;;13.87;2.53;;;29.60;43.40;;;;;;4901612;29;20446;-80
2024/03/30 12:04:17;;;;;;;7.70;2.00;;;29.50;42.60;;;;;;4916815;29;20446;-80
2024/03/30 12:06:44;;;;;;;10.27;2.00;;;29.10;42.90;;;;;;4899414;29;20456;-79
2024/03/30 12:09:10;;;;;;;8.90;2.50;;;28.80;43.80;;;;;;4930668;29;20928;-80
2024/03/30 12:11:37;;;;;;;8.60;2.33;;;28.60;44.30;;;;;;4901483;29;20457;-79
2024/03/30 12:14:06;;;;;;;5.20;2.20;;;28.50;44.20;;;;;;4904288;29;20446;-81
2024/03/30 12:16:33;;;;;;;8.27;2.13;;;28.30;44.70;;;;;;4899312;29;20444;-81
2024/03/30 12:19:00;;;;;;;10.40;2.10;;;28.20;44.90;;;;;;4918804;29;20458;-80
2024/03/30 12:21:27;;;;;;;8.70;2.23;;;28.10;45.40;;;;;;4915579;29;20495;-81
2024/03/30 12:23:53;;;;;;;8.70;2.10;;;28.20;46.10;;;;;;4904273;29;20420;-79
2024/03/30 12:26:21;;;;;;;8.93;2.20;;;28.80;45.20;;;;;;4920975;29;20451;-79
2024/03/30 12:29:00;;;;;;;9.20;2.20;;;29.20;45.40;;;;;;4902993;29;20428;-80
2024/03/30 12:31:31;;;;;;;9.83;1.90;;;29.90;44.20;;;;;;4902444;29;20447;-80
2024/03/30 12:34:00;;;;;;;5.97;1.63;;;30.30;43.20;;;;;;4922525;29;20450;-80
2024/03/30 12:36:28;;;;;;;9.70;1.83;;;30.40;42.90;;;;;;4926088;29;20802;-79
2024/03/30 12:38:54;;;;;;;6.20;2.20;;;30.90;42.90;;;;;;4916420;29;20453;-80
2024/03/30 12:41:23;;;;;;;8.13;1.50;;;31.40;42.20;;;;;;4903315;29;20446;-78
2024/03/30 12:44:08;;;;;;;9.90;2.30;;;31.70;41.70;;;;;;4899551;29;20437;-80
2024/03/30 12:46:37;;;;;;;10.33;2.67;;;31.80;40.80;;;;;;4897769;29;20471;-78
2024/03/30 12:49:03;;;;;;;7.47;2.20;;;31.40;41.30;;;;;;4885082;29;20454;-79
2024/03/30 12:51:31;;;;;;;8.53;2.73;;;31.00;42.10;;;;;;4889785;29;20445;-79
2024/03/30 12:53:59;;;;;;;10.10;2.27;;;31.10;42.50;;;;;;4899831;29;20474;-80
2024/03/30 12:56:27;;;;;;;10.20;2.37;;;31.10;42.30;;;;;;4915827;29;20466;-79
2024/03/30 12:58:54;;;;;;;11.10;2.90;;;30.90;42.30;;;;;;4898895;29;20937;-80
2024/03/30 13:01:40;;;;;;;9.83;2.10;;;30.90;42.90;;;;;;4903111;29;20442;-81